Kalaheo, HI (96741)

11:49 AM HST on March 29, 2015 (GMT -1000)
Koloa Landing - Whaler's Cove | | Change Station
CLOSE
Current Station
Personal Weather Station
Location: Koloa, HI
Elevation: 25 ft
Nearby Weather Stations
Active Advisory: High Surf Advisory

Elev 25 ft 21.88 °N, 159.47 °W | Updated 30 minutes ago

Mostly Cloudy
Mostly Cloudy
79.5 °F
Feels Like 82 °F
N
2.9
Wind Variable Wind from ESE
Gusts 4.9 mph

Today
High -- | Low -- °F
--% Chance of Precip.
Yesterday
High -- | Low -- °F
Precip. -- in
6:33 AM 6:52 PM
Waxing Gibbous, 74% visible
Pressure 30.20 in
Visibility 10.0 miles
Clouds Few 1600 ft
Scattered Clouds 2100 ft
Mostly Cloudy 6000 ft
Heat Index 82 °F
Dew Point 68 °F
Humidity 69%
Rainfall 0.09 in
Snow Depth Not available.
UV 5 out of 12
Pollen Not available.
Air Quality Not available.
Flu Activity Not available.
SPECI PHLI 292101Z 07010KT 10SM FEW016 SCT021 BKN060 26/19 A3020 RMK AO2 $

More Conditions Fewer Conditions

Pressure 30.20 in
Visibility 10.0 miles
Clouds Few 1600 ft
Scattered Clouds 2100 ft
Mostly Cloudy 6000 ft
Heat Index 82 °F
Dew Point 68 °F
Humidity 69%
Rainfall 0.09 in
Snow Depth Not available.
UV 5 out of 12
Pollen Not available.
Air Quality Not available.
Flu Activity Not available.
SPECI PHLI 292101Z 07010KT 10SM FEW016 SCT021 BKN060 26/19 A3020 RMK AO2 $

More Conditions Fewer Conditions

10-Day Weather Forecast

Almanac

Astronomy

Mar. 29, 2015 Rise Set
Actual Time
Civil Twilight
Nautical Twilight
Astronomical Twilight
Moon
Length of Visible Light
Length of Day
Tomorrow will be .
, % of the Moon is Illuminated

Today's Extremes

State Highs State Lows

Community

WunderPhotos

Upload Photos

1,809,364 photos uploaded!

WunderBlogs® & News

Nearby

Air Quality

  Air Quality AQ Index Pollutant
Not available.

Snow Depth

Station Depth Elevation

Earthquake Activity

City Distance Mag. Time & Date
Minimum magnitude displayed is 2.5.

Coastal Water Temperatures

Place Temperature

Stations

Nearby Weather Stations

Station Location Temp. Windchill Dew Point Humidity Wind Precip. Elev Updated Type
                   
High Surf Advisory
Statement as of 9:41 AM HST on March 29, 2015

... High surf advisory in effect until 6 am HST Monday...

The National Weather Service in Honolulu has issued a high surf
advisory... which is in effect until 6 am HST Monday.

* Surf... 12 to 16 feet on north and west facing shores of Kauai
and Niihau... and 10 to 15 feet on north facing shores of Oahu...
Molokai and Maui.

* Timing... through tonight.

* Impacts... moderate... expect strong breaking waves... shore
break... and strong longshore and rip currents making swimming
difficult and dangerous.

Precautionary/preparedness actions...

Beachgoers... swimmers... and surfers should heed all advice given
by ocean safety officials and exercise caution.



Birchard